Time;durP1;ratioP1;P1;durP2;ratioP2;P2;SDS_P1;SDS_P2;PMS_P1;PMS_P2;Temp;Humidity;BMP_temperature;BMP_pressure;BME280_temperature;BME280_humidity;BME280_pressure;Samples;Min_cycle;Max_cycle;Signal;HPM_P1;HPM_P2
2023/04/11 00:00:16;;;;;;;;;1.67;1.67;;;;;13.48;62.42;100966.13;2088091;28;46788;-61
2023/04/11 00:01:17;;;;;;;;;1.67;1.00;;;;;13.47;62.31;100968.84;2094467;28;45842;-60
2023/04/11 00:02:17;;;;;;;;;1.67;1.67;;;;;13.45;62.53;100967.97;2089826;28;46567;-60
2023/04/11 00:03:18;;;;;;;;;2.67;1.67;;;;;13.44;62.79;100972.44;2087969;28;46278;-60
2023/04/11 00:04:19;;;;;;;;;1.50;1.50;;;;;13.43;62.25;100986.69;2088204;28;46371;-60
2023/04/11 00:05:19;;;;;;;;;1.67;1.67;;;;;13.40;62.71;100984.13;2091959;28;46302;-59
2023/04/11 00:06:20;;;;;;;;;2.67;1.00;;;;;13.39;62.28;100994.84;2095277;28;45839;-60
2023/04/11 00:07:20;;;;;;;;;1.67;1.00;;;;;13.37;62.63;100992.22;2086051;28;46693;-61
2023/04/11 00:08:21;;;;;;;;;2.00;0.67;;;;;13.36;62.53;100998.47;2091072;28;46774;-61
2023/04/11 00:09:21;;;;;;;;;1.67;1.00;;;;;13.36;62.44;101010.94;2088603;28;46311;-60
2023/04/11 00:10:22;;;;;;;;;1.00;1.00;;;;;13.35;62.30;100993.19;2089369;28;46539;-60
2023/04/11 00:11:22;;;;;;;;;2.00;1.67;;;;;13.33;62.54;101003.88;2087069;28;46088;-59
2023/04/11 00:12:23;;;;;;;;;1.67;0.33;;;;;13.32;62.52;101001.25;2087742;28;46478;-60
2023/04/11 00:13:23;;;;;;;;;1.00;1.00;;;;;13.32;62.52;100999.44;2088758;28;45863;-59
2023/04/11 00:14:24;;;;;;;;;1.00;1.00;;;;;13.31;62.67;100997.72;2092478;28;46256;-61
2023/04/11 00:15:25;;;;;;;;;1.67;1.00;;;;;13.31;62.45;100992.38;2088226;28;46602;-59
2023/04/11 00:16:25;;;;;;;;;3.75;0.75;;;;;13.33;62.42;100995.00;2092786;28;46703;-61
2023/04/11 00:17:30;;;;;;;;;0.00;0.00;;;;;13.33;62.53;100987.00;2088355;28;46783;-60
2023/04/11 00:18:30;;;;;;;;;5.00;1.25;;;;;13.33;62.35;100997.66;2088693;28;46518;-60
2023/04/11 00:19:32;;;;;;;;;1.33;1.33;;;;;13.32;62.27;100985.25;2088009;28;46325;-61
2023/04/11 00:20:32;;;;;;;;;2.25;0.00;;;;;13.32;61.96;101001.25;2090423;28;46590;-61
2023/04/11 00:21:34;;;;;;;;;2.00;1.00;;;;;13.31;62.18;101007.50;2090223;28;46355;-59
2023/04/11 00:22:34;;;;;;;;;0.75;0.75;;;;;13.31;62.03;100999.50;2092095;28;46965;-60
2023/04/11 00:23:35;;;;;;;;;1.33;1.33;;;;;13.31;61.85;101007.50;2088960;28;46307;-61
2023/04/11 00:24:35;;;;;;;;;2.33;1.33;;;;;13.31;61.99;101010.16;2088436;28;46413;-60
2023/04/11 00:25:36;;;;;;;;;2.67;2.00;;;;;13.30;62.17;101006.63;2087962;28;46684;-61
2023/04/11 00:26:36;;;;;;;;;1.67;1.67;;;;;13.30;62.16;101005.75;2097434;28;46500;-60
2023/04/11 00:27:36;;;;;;;;;1.00;1.00;;;;;13.31;61.82;101005.69;2089725;28;46128;-60
2023/04/11 00:28:37;;;;;;;;;1.00;1.00;;;;;13.31;61.60;101003.03;2088652;28;46828;-61
2023/04/11 00:29:37;;;;;;;;;1.67;1.00;;;;;13.29;61.66;101004.88;2088769;28;45838;-61
2023/04/11 00:30:38;;;;;;;;;2.00;2.00;;;;;13.28;61.94;101000.47;2089601;28;46550;-60
2023/04/11 00:31:38;;;;;;;;;2.67;1.00;;;;;13.27;61.61;100993.38;2096265;28;46278;-61
2023/04/11 00:32:39;;;;;;;;;1.00;0.00;;;;;13.26;61.47;100986.31;2084540;28;46229;-61
2023/04/11 00:33:39;;;;;;;;;2.00;1.00;;;;;13.25;61.53;100985.44;2088504;28;45909;-60
2023/04/11 00:34:40;;;;;;;;;2.67;1.00;;;;;13.25;61.34;100998.78;2087808;28;46822;-61
2023/04/11 00:35:40;;;;;;;;;1.00;1.00;;;;;13.26;61.29;100994.31;2087619;28;46461;-61
2023/04/11 00:36:40;;;;;;;;;0.00;0.00;;;;;13.25;61.35;100995.22;2088683;28;45837;-61
2023/04/11 00:37:43;;;;;;;;;2.00;0.67;;;;;13.25;61.29;101000.56;2089439;28;46713;-60
2023/04/11 00:38:43;;;;;;;;;0.00;0.00;;;;;13.24;61.44;100988.16;2088133;28;47067;-62
2023/04/11 00:39:44;;;;;;;;;1.00;1.00;;;;;13.25;61.27;101000.56;2088232;28;46234;-59
2023/04/11 00:40:45;;;;;;;;;0.00;0.00;;;;;13.25;60.95;101003.22;2088073;28;46334;-61
2023/04/11 00:41:46;;;;;;;;;1.00;1.00;;;;;13.25;61.01;101003.22;2088229;28;46998;-61
2023/04/11 00:42:47;;;;;;;;;2.00;1.00;;;;;13.24;61.00;101006.81;2094681;28;45873;-60
2023/04/11 00:43:48;;;;;;;;;1.00;1.00;;;;;13.25;61.01;101008.56;2096488;28;46401;-59
2023/04/11 00:44:49;;;;;;;;;1.50;1.50;;;;;13.26;60.96;101004.97;2096678;28;46577;-60
2023/04/11 00:45:50;;;;;;;;;0.67;0.67;;;;;13.24;60.81;101007.69;2104590;28;46146;-61
2023/04/11 00:46:50;;;;;;;;;0.00;0.00;;;;;13.23;60.35;101016.59;2103460;28;47143;-60
2023/04/11 00:47:51;;;;;;;;;2.00;1.00;;;;;13.21;60.55;101012.19;2104043;28;46293;-62
2023/04/11 00:48:51;;;;;;;;;1.00;1.00;;;;;13.22;60.47;101009.53;2100382;28;46645;-61
2023/04/11 00:49:52;;;;;;;;;1.00;1.00;;;;;13.22;60.48;101008.66;2102943;28;46525;-59
2023/04/11 00:50:53;;;;;;;;;0.33;0.33;;;;;13.23;60.43;101013.06;2098922;28;46998;-61
2023/04/11 00:51:53;;;;;;;;;2.00;2.00;;;;;13.23;60.64;101003.28;2097728;28;46333;-60
2023/04/11 00:52:55;;;;;;;;;1.00;1.00;;;;;13.24;60.37;101012.13;2096743;28;46488;-61
2023/04/11 00:53:55;;;;;;;;;4.00;1.75;;;;;13.22;60.06;101013.97;2097554;28;46442;-62
2023/04/11 00:54:56;;;;;;;;;2.00;1.00;;;;;13.21;60.18;101010.44;2096474;28;46932;-61
2023/04/11 00:55:58;;;;;;;;;1.50;1.50;;;;;13.20;59.98;101002.47;2102112;28;46535;-61
2023/04/11 00:57:00;;;;;;;;;2.00;1.00;;;;;13.18;60.01;101014.94;2096549;28;46907;-62
2023/04/11 00:58:01;;;;;;;;;0.75;0.75;;;;;13.15;59.90;101010.56;2096316;28;47115;-61
2023/04/11 00:59:01;;;;;;;;;1.67;1.67;;;;;13.14;60.03;101024.81;2087345;28;46717;-59
2023/04/11 01:00:03;;;;;;;;;1.33;0.67;;;;;13.15;59.91;101021.22;2087544;28;45724;-62
2023/04/11 01:01:10;;;;;;;;;2.75;2.75;;;;;13.14;60.13;101011.47;2091534;28;46858;-61
2023/04/11 01:02:11;;;;;;;;;1.25;0.75;;;;;13.15;60.04;101018.56;2088780;28;45697;-61
2023/04/11 01:03:12;;;;;;;;;0.25;0.25;;;;;13.14;60.20;101019.47;2097115;28;46410;-61
2023/04/11 01:04:12;;;;;;;;;1.00;1.00;;;;;13.12;59.99;101021.31;2088528;28;46390;-62
2023/04/11 01:05:13;;;;;;;;;2.00;1.00;;;;;13.11;60.08;101016.91;2094586;28;46836;-60
2023/04/11 01:06:16;;;;;;;;;1.25;1.00;;;;;13.10;59.87;101025.81;2104860;28;46396;-61
2023/04/11 01:07:19;;;;;;;;;1.25;0.00;;;;;13.08;60.00;101019.63;2098025;28;46201;-61
2023/04/11 01:08:21;;;;;;;;;3.00;2.00;;;;;13.08;59.96;101022.28;2101461;28;46893;-60
2023/04/11 01:09:25;;;;;;;;;1.00;1.00;;;;;13.07;60.00;101025.88;2098279;28;46957;-61
2023/04/11 01:10:29;;;;;;;;;3.00;2.00;;;;;13.06;60.02;101028.59;2098600;28;46474;-59
2023/04/11 01:11:31;;;;;;;;;1.50;1.50;;;;;13.05;59.94;101017.06;2097724;28;46800;-60
2023/04/11 01:12:33;;;;;;;;;1.75;1.75;;;;;13.04;59.68;101011.78;2096391;28;47153;-61
2023/04/11 01:13:38;;;;;;;;;0.75;0.75;;;;;13.05;59.77;101024.16;2096303;28;46338;-60
2023/04/11 01:14:39;;;;;;;;;1.75;0.00;;;;;13.05;59.71;101011.72;2097394;28;46770;-60
2023/04/11 01:15:39;;;;;;;;;2.75;1.00;;;;;13.06;59.73;101018.78;2088680;28;46186;-60
2023/04/11 01:16:40;;;;;;;;;1.00;1.00;;;;;13.05;59.85;101014.38;2078398;28;46213;-60
2023/04/11 01:17:41;;;;;;;;;2.00;2.00;;;;;13.06;59.73;101016.13;2081056;28;47107;-61
2023/04/11 01:18:41;;;;;;;;;1.75;1.00;;;;;13.07;59.84;101017.00;2096192;28;46664;-62
2023/04/11 01:19:42;;;;;;;;;0.33;0.33;;;;;13.08;59.77;101026.75;2101225;28;45832;-60
2023/04/11 01:20:42;;;;;;;;;1.00;1.00;;;;;13.09;59.62;101036.53;2089884;28;46827;-61
2023/04/11 01:21:45;;;;;;;;;1.00;0.00;;;;;13.10;59.55;101049.78;2089025;28;46338;-60
2023/04/11 01:22:48;;;;;;;;;2.00;2.00;;;;;13.09;59.95;101042.72;2096350;28;46241;-61
2023/04/11 01:23:51;;;;;;;;;2.75;2.75;;;;;13.09;59.50;101045.38;2102142;28;46800;-61
2023/04/11 01:24:51;;;;;;;;;3.25;2.00;;;;;13.09;59.49;101047.19;2099797;28;46908;-61
2023/04/11 01:25:52;;;;;;;;;1.00;1.00;;;;;13.09;59.44;101047.19;2095798;28;46691;-59
2023/04/11 01:26:53;;;;;;;;;2.67;2.00;;;;;13.11;59.47;101048.00;2096487;28;46409;-61
2023/04/11 01:27:55;;;;;;;;;2.00;2.00;;;;;13.09;59.58;101048.06;2098756;28;46320;-60
2023/04/11 01:28:56;;;;;;;;;2.00;0.00;;;;;13.09;59.55;101042.72;2087314;28;46925;-60
2023/04/11 01:29:56;;;;;;;;;2.33;1.33;;;;;13.10;59.42;101046.25;2093696;28;46273;-62
2023/04/11 01:30:56;;;;;;;;;0.33;0.33;;;;;13.09;59.51;101040.06;2089545;28;46448;-61
2023/04/11 01:31:57;;;;;;;;;1.67;1.67;;;;;13.08;59.32;101038.28;2102121;28;46301;-60
2023/04/11 01:32:57;;;;;;;;;1.00;0.00;;;;;13.05;59.12;101037.50;2096136;28;46460;-61
2023/04/11 01:33:59;;;;;;;;;1.67;1.00;;;;;13.02;59.28;101030.47;2098957;28;46575;-61
2023/04/11 01:35:02;;;;;;;;;0.75;0.25;;;;;13.01;59.23;101027.84;2096561;28;46383;-60
2023/04/11 01:36:03;;;;;;;;;1.75;1.00;;;;;13.02;59.02;101034.91;2104092;28;46530;-60
2023/04/11 01:37:03;;;;;;;;;0.33;0.33;;;;;13.02;59.27;101034.91;2103059;28;46253;-60
2023/04/11 01:38:04;;;;;;;;;1.00;1.00;;;;;13.00;59.26;101036.75;2101112;28;46499;-60
2023/04/11 01:39:05;;;;;;;;;3.50;1.00;;;;;13.01;59.52;101039.38;2090839;28;46470;-62
2023/04/11 01:40:06;;;;;;;;;3.00;1.00;;;;;13.01;59.25;101046.50;2081656;28;46861;-63
2023/04/11 01:41:09;;;;;;;;;0.75;0.75;;;;;13.00;59.34;101047.41;2079311;28;46430;-61
2023/04/11 01:42:10;;;;;;;;;1.00;1.00;;;;;12.99;59.27;101043.88;2091361;28;46908;-60
2023/04/11 01:43:10;;;;;;;;;2.00;0.25;;;;;12.98;59.47;101050.13;2098102;28;47136;-60
2023/04/11 01:44:11;;;;;;;;;1.67;0.00;;;;;12.98;59.31;101049.25;2088280;28;46199;-59
2023/04/11 01:45:12;;;;;;;;;1.00;0.00;;;;;12.99;59.43;101056.31;2087096;28;46722;-60
2023/04/11 01:46:14;;;;;;;;;2.00;2.00;;;;;13.00;59.41;101047.41;2096459;28;45462;-61
2023/04/11 01:47:14;;;;;;;;;0.50;0.25;;;;;13.00;59.41;101052.75;2096946;28;46630;-61
2023/04/11 01:48:15;;;;;;;;;2.67;2.67;;;;;12.99;59.38;101049.19;2089954;28;45726;-60
2023/04/11 01:49:17;;;;;;;;;1.00;0.00;;;;;12.99;59.42;101051.00;2086808;28;46901;-61
2023/04/11 01:50:18;;;;;;;;;2.00;2.00;;;;;12.99;59.30;101053.66;2099843;27;46406;-61
2023/04/11 01:51:18;;;;;;;;;3.00;2.00;;;;;12.98;59.35;101065.22;2102446;28;46261;-61
2023/04/11 01:52:18;;;;;;;;;2.00;2.00;;;;;12.97;59.55;101048.38;2096252;28;46362;-60
2023/04/11 01:53:18;;;;;;;;;2.67;1.00;;;;;12.97;59.57;101056.38;2091414;28;46146;-60
2023/04/11 01:54:19;;;;;;;;;1.00;1.00;;;;;12.96;59.46;101058.16;2085672;28;46202;-64
2023/04/11 01:55:19;;;;;;;;;0.33;0.00;;;;;12.95;59.44;101061.69;2087030;28;46670;-60
2023/04/11 01:56:20;;;;;;;;;1.00;1.00;;;;;12.94;59.45;101067.94;2095894;28;46596;-62
2023/04/11 01:57:20;;;;;;;;;2.67;1.33;;;;;12.95;59.24;101068.81;2093407;28;45103;-61
2023/04/11 01:58:21;;;;;;;;;2.00;1.00;;;;;12.93;59.62;101071.53;2089549;28;47150;-61
2023/04/11 01:59:21;;;;;;;;;3.00;1.00;;;;;12.93;59.63;101065.31;2095691;28;46129;-60
2023/04/11 02:00:21;;;;;;;;;2.00;2.00;;;;;12.92;59.51;101066.25;2078470;28;46184;-60
2023/04/11 02:01:22;;;;;;;;;1.00;0.33;;;;;12.91;59.52;101064.50;2076520;28;46943;-60
2023/04/11 02:02:22;;;;;;;;;2.00;2.00;;;;;12.90;59.50;101066.28;2087428;28;46615;-60
2023/04/11 02:03:22;;;;;;;;;4.67;1.33;;;;;12.89;59.63;101071.66;2095665;28;45582;-60
2023/04/11 02:04:23;;;;;;;;;2.33;1.00;;;;;12.87;59.46;101078.81;2095209;28;46549;-60
2023/04/11 02:05:23;;;;;;;;;2.33;1.00;;;;;12.84;59.39;101076.25;2088873;28;46218;-60
2023/04/11 02:06:25;;;;;;;;;1.00;1.00;;;;;12.82;59.56;101078.91;2102360;28;46132;-59
2023/04/11 02:07:26;;;;;;;;;2.25;1.75;;;;;12.81;59.79;101071.84;2095201;28;46447;-61
2023/04/11 02:08:26;;;;;;;;;0.00;0.00;;;;;12.81;59.76;101090.47;2087657;28;46444;-61
2023/04/11 02:09:26;;;;;;;;;1.00;0.67;;;;;12.81;59.70;101079.84;2087782;28;46290;-61
2023/04/11 02:10:27;;;;;;;;;0.33;0.33;;;;;12.81;59.63;101076.28;2088851;28;46885;-60
2023/04/11 02:11:27;;;;;;;;;2.00;1.00;;;;;12.80;59.53;101078.09;2090144;28;46194;-60
2023/04/11 02:12:27;;;;;;;;;0.00;0.00;;;;;12.79;59.71;101086.13;2096973;28;46885;-61
2023/04/11 02:13:28;;;;;;;;;0.00;0.00;;;;;12.78;59.61;101087.91;2095196;28;46469;-60
2023/04/11 02:14:42;;;;;;;;;5.00;4.00;;;;;12.78;59.73;101079.91;2095740;28;46672;-60
2023/04/11 02:15:42;;;;;;;;;1.75;1.25;;;;;12.77;59.81;101075.50;2098435;28;46745;-60
2023/04/11 02:16:53;;;;;;;;;0.00;0.00;;;;;12.75;59.89;101077.34;2099809;28;46372;-60
2023/04/11 02:17:54;;;;;;;;;0.75;0.75;;;;;12.74;59.95;101075.59;2096118;28;46685;-61
2023/04/11 02:18:55;;;;;;;;;2.00;2.00;;;;;12.73;59.83;101075.63;2096175;28;46636;-60
2023/04/11 02:19:56;;;;;;;;;0.75;0.75;;;;;12.72;59.86;101077.41;2095784;28;47008;-62
2023/04/11 02:20:57;;;;;;;;;1.00;0.00;;;;;12.68;59.87;101068.59;2102292;28;45955;-60
2023/04/11 02:21:57;;;;;;;;;3.00;1.00;;;;;12.66;59.91;101069.56;2095622;28;46713;-61
2023/04/11 02:22:57;;;;;;;;;1.00;1.00;;;;;12.65;60.04;101073.16;2104577;28;46241;-60
2023/04/11 02:23:58;;;;;;;;;2.00;1.00;;;;;12.64;59.88;101082.91;2099880;28;46193;-60
2023/04/11 02:24:58;;;;;;;;;3.00;1.00;;;;;12.63;60.04;101082.97;2095852;28;46381;-60
2023/04/11 02:26:00;;;;;;;;;2.33;0.33;;;;;12.62;59.97;101078.56;2095899;28;46603;-60
2023/04/11 02:27:00;;;;;;;;;1.75;1.00;;;;;12.61;60.20;101083.00;2095841;28;46613;-60
2023/04/11 02:28:01;;;;;;;;;2.00;2.00;;;;;12.60;60.06;101075.06;2096730;28;46366;-60
2023/04/11 02:29:01;;;;;;;;;4.00;2.33;;;;;12.58;59.90;101061.78;2101159;28;46210;-61
2023/04/11 02:30:04;;;;;;;;;0.33;0.33;;;;;12.58;60.00;101071.56;2087772;28;46087;-60
2023/04/11 02:31:05;;;;;;;;;0.25;0.00;;;;;12.56;60.20;101066.25;2087016;28;46947;-59
2023/04/11 02:32:05;;;;;;;;;1.33;1.00;;;;;12.56;60.03;101071.56;2078003;28;46613;-59
2023/04/11 02:33:06;;;;;;;;;2.33;0.33;;;;;12.55;60.23;101082.25;2078999;28;46760;-61
2023/04/11 02:34:06;;;;;;;;;1.00;1.00;;;;;12.54;60.40;101083.19;2101719;28;46637;-61
2023/04/11 02:35:07;;;;;;;;;3.00;1.00;;;;;12.54;60.38;101077.84;2097865;28;46357;-61
2023/04/11 02:36:07;;;;;;;;;2.33;2.00;;;;;12.54;60.39;101085.84;2100122;28;45729;-61
2023/04/11 02:37:08;;;;;;;;;1.00;1.00;;;;;12.56;60.21;101084.00;2086928;28;46507;-60
2023/04/11 02:38:08;;;;;;;;;2.00;1.00;;;;;12.58;60.44;101088.41;2087442;28;46794;-60
2023/04/11 02:39:08;;;;;;;;;2.00;1.00;;;;;12.59;60.27;101082.16;2087024;28;46712;-62
2023/04/11 02:40:09;;;;;;;;;0.00;0.00;;;;;12.59;60.28;101076.84;2088874;28;46251;-59
2023/04/11 02:41:10;;;;;;;;;0.67;0.33;;;;;12.58;60.46;101088.41;2095929;28;46134;-59
2023/04/11 02:42:13;;;;;;;;;2.00;1.00;;;;;12.56;60.36;101082.22;2087808;28;46395;-59
2023/04/11 02:43:14;;;;;;;;;4.00;0.75;;;;;12.57;60.31;101081.31;2090372;28;46695;-58
2023/04/11 02:44:15;;;;;;;;;2.75;0.50;;;;;12.57;60.39;101083.09;2096137;28;46738;-61
2023/04/11 02:45:16;;;;;;;;;1.00;0.75;;;;;12.58;60.53;101079.53;2097829;28;46491;-59
2023/04/11 02:46:16;;;;;;;;;4.67;0.33;;;;;12.58;60.24;101083.09;2094957;28;46248;-59
2023/04/11 02:47:16;;;;;;;;;5.00;3.00;;;;;12.58;60.36;101082.22;2093844;28;46415;-58
2023/04/11 02:48:17;;;;;;;;;2.00;0.33;;;;;12.58;60.43;101084.88;2104046;28;46577;-60
2023/04/11 02:49:17;;;;;;;;;2.00;2.00;;;;;12.59;60.65;101092.81;2097449;28;46381;-59
2023/04/11 02:50:17;;;;;;;;;1.00;1.00;;;;;12.61;60.41;101082.13;2086952;28;46768;-59
2023/04/11 02:51:18;;;;;;;;;1.00;1.00;;;;;12.62;60.45;101079.44;2084612;28;46747;-58
2023/04/11 02:52:18;;;;;;;;;3.00;2.33;;;;;12.63;60.31;101077.63;2082182;28;45844;-61
2023/04/11 02:53:18;;;;;;;;;1.67;1.67;;;;;12.61;60.30;101080.34;2087581;28;46753;-60
2023/04/11 02:54:19;;;;;;;;;1.00;0.00;;;;;12.61;60.49;101084.78;2087723;28;46083;-59
2023/04/11 02:55:22;;;;;;;;;1.33;1.33;;;;;12.60;60.56;101083.03;2086311;28;46357;-60
2023/04/11 02:56:22;;;;;;;;;1.50;1.50;;;;;12.59;60.56;101092.81;2078088;28;46368;-60
2023/04/11 02:57:22;;;;;;;;;0.67;0.67;;;;;12.59;60.58;101082.16;2083902;28;45903;-59
2023/04/11 02:58:24;;;;;;;;;2.00;1.00;;;;;12.61;60.63;101079.47;2097481;28;46266;-59
2023/04/11 02:59:25;;;;;;;;;1.00;1.00;;;;;12.62;60.49;101091.88;2097478;28;47173;-58
2023/04/11 03:00:25;;;;;;;;;1.67;1.67;;;;;12.63;60.59;101082.97;2098076;28;46808;-59
2023/04/11 03:01:26;;;;;;;;;0.00;0.00;;;;;12.63;60.46;101088.28;2099659;28;46307;-59
2023/04/11 03:02:28;;;;;;;;;2.67;2.67;;;;;12.61;60.35;101090.13;2103703;28;46342;-58
2023/04/11 03:03:29;;;;;;;;;1.00;1.00;;;;;12.59;60.42;101097.28;2088477;28;46595;-58
2023/04/11 03:04:29;;;;;;;;;3.00;1.00;;;;;12.59;60.53;101094.59;2088688;28;46243;-59
2023/04/11 03:05:29;;;;;;;;;2.00;2.00;;;;;12.57;60.61;101094.63;2098408;28;45496;-59
2023/04/11 03:06:30;;;;;;;;;1.67;1.67;;;;;12.58;60.86;101098.19;2088852;28;46384;-59
2023/04/11 03:07:31;;;;;;;;;3.00;1.33;;;;;12.57;60.67;101096.41;2080894;28;46721;-60
2023/04/11 03:08:32;;;;;;;;;1.50;1.00;;;;;12.58;60.76;101103.50;2088206;28;46400;-60
2023/04/11 03:09:32;;;;;;;;;2.00;0.50;;;;;12.58;60.64;101099.06;2101366;28;46451;-60
2023/04/11 03:10:33;;;;;;;;;4.00;1.67;;;;;12.57;60.88;101097.28;2097177;28;46230;-60
2023/04/11 03:11:33;;;;;;;;;3.00;2.00;;;;;12.58;61.00;101104.38;2097759;28;46309;-58
2023/04/11 03:12:33;;;;;;;;;2.00;2.00;;;;;12.59;60.68;101106.13;2079939;28;46253;-59
2023/04/11 03:13:35;;;;;;;;;1.00;1.00;;;;;12.58;60.75;101092.84;2074785;28;46746;-61
2023/04/11 03:14:36;;;;;;;;;1.00;1.00;;;;;12.58;60.79;101101.72;2091375;28;46728;-58
2023/04/11 03:15:36;;;;;;;;;1.00;1.00;;;;;12.57;60.86;101101.72;2099212;28;46677;-60
2023/04/11 03:16:36;;;;;;;;;2.67;0.00;;;;;12.56;61.00;101106.19;2093157;28;46537;-61
2023/04/11 03:17:37;;;;;;;;;1.00;1.00;;;;;12.57;61.12;101099.94;2095111;28;46788;-59
2023/04/11 03:18:37;;;;;;;;;1.00;1.00;;;;;12.57;60.85;101101.72;2103687;28;46433;-59
2023/04/11 03:19:37;;;;;;;;;0.67;0.67;;;;;12.56;60.88;101092.88;2097117;28;46471;-60
2023/04/11 03:20:38;;;;;;;;;1.33;0.67;;;;;12.57;61.01;101105.25;2096411;28;46324;-60
2023/04/11 03:21:38;;;;;;;;;2.67;2.00;;;;;12.58;61.07;101107.03;2097653;28;46899;-59
2023/04/11 03:22:38;;;;;;;;;4.00;1.00;;;;;12.59;60.94;101108.78;2103299;28;46699;-59
2023/04/11 03:23:39;;;;;;;;;4.00;2.00;;;;;12.58;60.81;101117.69;2104348;28;46857;-60
2023/04/11 03:24:39;;;;;;;;;3.33;1.67;;;;;12.58;60.95;101111.50;2097238;28;46268;-59
2023/04/11 03:25:40;;;;;;;;;1.00;1.00;;;;;12.57;61.07;101107.94;2101376;28;46119;-59
2023/04/11 03:26:40;;;;;;;;;1.00;1.00;;;;;12.56;61.14;101115.97;2097541;28;46288;-59
2023/04/11 03:27:41;;;;;;;;;3.00;1.00;;;;;12.56;60.83;101116.81;2087876;28;45554;-61
2023/04/11 03:28:41;;;;;;;;;3.00;3.00;;;;;12.56;61.11;101118.63;2083367;28;46319;-60
2023/04/11 03:29:41;;;;;;;;;2.00;1.00;;;;;12.55;61.13;101115.09;2084283;28;46327;-59
2023/04/11 03:30:42;;;;;;;;;1.00;1.00;;;;;12.55;61.26;101115.09;2091992;28;46333;-59
2023/04/11 03:31:42;;;;;;;;;4.67;2.33;;;;;12.55;61.01;101117.75;2103310;28;45697;-60
2023/04/11 03:32:43;;;;;;;;;2.67;1.00;;;;;12.54;60.97;101118.66;2100918;28;45568;-58
2023/04/11 03:33:44;;;;;;;;;3.67;2.67;;;;;12.51;61.20;101116.06;2105156;28;46276;-58
2023/04/11 03:34:45;;;;;;;;;1.25;1.00;;;;;12.51;61.18;101116.06;2099603;28;46895;-59
2023/04/11 03:35:45;;;;;;;;;2.33;2.33;;;;;12.51;61.38;101112.53;2094557;28;45837;-59
2023/04/11 03:36:45;;;;;;;;;3.00;1.00;;;;;12.50;61.30;101117.00;2088834;28;46624;-59
2023/04/11 03:37:46;;;;;;;;;1.00;1.00;;;;;12.49;61.05;101125.00;2098319;28;46814;-61
2023/04/11 03:38:47;;;;;;;;;2.33;2.33;;;;;12.47;61.17;101124.19;2105456;28;46241;-58
2023/04/11 03:39:47;;;;;;;;;5.00;3.00;;;;;12.46;61.47;101120.63;2087767;28;46413;-59
2023/04/11 03:40:47;;;;;;;;;2.67;2.00;;;;;12.46;61.33;101120.63;2091335;28;46324;-60
2023/04/11 03:41:48;;;;;;;;;1.67;1.00;;;;;12.45;61.19;101113.56;2096680;28;46814;-61
2023/04/11 03:42:48;;;;;;;;;1.00;1.00;;;;;12.44;61.48;101108.25;2095163;28;46503;-59
2023/04/11 03:43:49;;;;;;;;;2.00;2.00;;;;;12.44;61.31;101121.56;2105000;28;45956;-59
2023/04/11 03:44:49;;;;;;;;;1.67;1.00;;;;;12.44;61.43;101121.56;2097666;28;47244;-59
2023/04/11 03:45:50;;;;;;;;;1.00;1.00;;;;;12.42;61.48;101126.91;2101321;28;46813;-59
2023/04/11 03:46:50;;;;;;;;;2.25;1.00;;;;;12.42;61.47;101118.06;2100457;28;46252;-60
2023/04/11 03:47:51;;;;;;;;;1.00;1.00;;;;;12.42;61.49;101123.38;2089713;28;46986;-59
2023/04/11 03:48:51;;;;;;;;;2.00;2.00;;;;;12.40;61.44;101123.44;2089173;28;46704;-60
2023/04/11 03:49:52;;;;;;;;;1.00;0.33;;;;;12.41;61.34;101125.19;2097612;28;46756;-59
2023/04/11 03:50:52;;;;;;;;;2.00;2.00;;;;;12.42;61.69;101120.72;2097103;28;46955;-59
2023/04/11 03:51:52;;;;;;;;;1.00;1.00;;;;;12.41;61.50;101122.50;2097960;28;46740;-59
2023/04/11 03:52:53;;;;;;;;;3.67;2.33;;;;;12.42;61.80;101126.91;2104063;28;45955;-59
2023/04/11 03:53:53;;;;;;;;;1.00;1.00;;;;;12.43;61.74;101125.13;2098943;28;46204;-59
2023/04/11 03:54:53;;;;;;;;;1.00;1.00;;;;;12.42;61.73;101120.72;2097146;28;46446;-59
2023/04/11 03:55:54;;;;;;;;;2.33;2.33;;;;;12.41;61.47;101133.16;2098308;28;46333;-59
2023/04/11 03:56:56;;;;;;;;;1.33;1.00;;;;;12.40;61.54;101128.75;2091479;28;46416;-60
2023/04/11 03:57:56;;;;;;;;;1.00;1.00;;;;;12.38;61.69;101131.44;2100331;28;46312;-60
2023/04/11 03:58:56;;;;;;;;;0.00;0.00;;;;;12.39;61.71;101129.66;2098415;28;46754;-59
2023/04/11 03:59:57;;;;;;;;;1.67;1.67;;;;;12.38;61.81;101123.47;2097556;28;46705;-60
2023/04/11 04:00:57;;;;;;;;;2.00;1.00;;;;;12.38;61.64;101130.56;2094717;28;45072;-60
2023/04/11 04:01:58;;;;;;;;;2.00;1.33;;;;;12.37;61.81;101121.72;2079522;28;46807;-59
2023/04/11 04:02:58;;;;;;;;;4.00;1.00;;;;;12.37;61.77;101127.03;2088537;28;46645;-59
2023/04/11 04:03:59;;;;;;;;;3.00;1.00;;;;;12.37;61.88;101124.38;2096427;28;46606;-60
2023/04/11 04:05:00;;;;;;;;;1.33;1.33;;;;;12.40;61.88;101130.53;2096500;28;46718;-58
2023/04/11 04:06:00;;;;;;;;;1.00;1.00;;;;;12.40;61.69;101127.88;2096160;28;46289;-60
2023/04/11 04:07:01;;;;;;;;;2.00;1.00;;;;;12.40;61.78;101134.06;2091264;28;46566;-59
2023/04/11 04:08:01;;;;;;;;;1.00;1.00;;;;;12.37;61.61;101129.69;2090104;28;46203;-58
2023/04/11 04:09:03;;;;;;;;;1.00;1.00;;;;;12.37;61.80;101134.16;2095590;28;47110;-59
2023/04/11 04:10:03;;;;;;;;;1.50;1.50;;;;;12.35;61.83;101131.53;2092545;28;46545;-59
2023/04/11 04:11:04;;;;;;;;;2.00;1.00;;;;;12.36;62.08;101141.25;2090516;28;46854;-58
2023/04/11 04:12:05;;;;;;;;;0.67;0.00;;;;;12.37;61.85;101137.69;2087550;28;45636;-59
2023/04/11 04:13:05;;;;;;;;;1.00;1.00;;;;;12.38;61.93;101136.78;2087554;28;46171;-60
2023/04/11 04:14:05;;;;;;;;;3.00;1.67;;;;;12.38;61.92;101135.91;2087992;28;46867;-61
2023/04/11 04:15:06;;;;;;;;;1.00;1.00;;;;;12.37;62.07;101131.50;2087580;28;46560;-60
2023/04/11 04:16:07;;;;;;;;;1.00;1.00;;;;;12.35;61.63;101138.63;2086905;28;46294;-59
2023/04/11 04:17:08;;;;;;;;;4.67;3.00;;;;;12.32;61.91;101138.69;2087555;28;46668;-60
2023/04/11 04:18:08;;;;;;;;;3.33;2.00;;;;;12.30;62.00;101135.19;2086941;28;46160;-59
2023/04/11 04:19:08;;;;;;;;;3.00;1.00;;;;;12.29;62.07;101136.09;2086917;28;46781;-59
2023/04/11 04:20:09;;;;;;;;;1.67;1.00;;;;;12.27;61.92;101130.81;2087739;28;46334;-59
2023/04/11 04:21:10;;;;;;;;;1.00;1.00;;;;;12.28;62.04;101132.56;2087777;28;46887;-60
2023/04/11 04:22:12;;;;;;;;;1.00;1.00;;;;;12.28;61.93;101127.25;2084407;28;46259;-58
2023/04/11 04:23:16;;;;;;;;;3.75;2.00;;;;;12.27;61.80;101127.28;2089534;28;46872;-59
2023/04/11 04:24:17;;;;;;;;;2.75;2.00;;;;;12.27;62.10;101136.13;2087735;28;45121;-59
2023/04/11 04:25:18;;;;;;;;;1.67;1.00;;;;;12.29;62.18;101134.31;2079495;28;45643;-59
2023/04/11 04:26:23;;;;;;;;;1.25;1.00;;;;;12.30;62.20;101135.19;2081821;28;46674;-61
2023/04/11 04:27:24;;;;;;;;;2.00;1.75;;;;;12.29;61.99;101136.97;2084795;28;46389;-60
2023/04/11 04:28:24;;;;;;;;;1.00;1.00;;;;;12.28;61.84;101126.38;2087341;28;45681;-60
2023/04/11 04:29:36;;;;;;;;;3.33;1.00;;;;;12.25;62.27;101131.75;2088119;28;46378;-58
2023/04/11 04:30:37;;;;;;;;;2.50;2.50;;;;;12.24;62.09;101130.00;2087580;28;45847;-59
2023/04/11 04:31:37;;;;;;;;;1.67;1.67;;;;;12.23;62.27;101131.78;2089491;28;46411;-58
2023/04/11 04:32:39;;;;;;;;;1.00;1.00;;;;;12.24;62.13;101135.34;2083684;28;45462;-60
2023/04/11 04:33:41;;;;;;;;;1.25;1.25;;;;;12.23;62.18;101138.91;2087804;28;45336;-60
2023/04/11 04:34:48;;;;;;;;;1.00;1.00;;;;;12.24;62.26;101145.97;2093478;28;45605;-60
2023/04/11 04:35:56;;;;;;;;;4.00;2.50;;;;;12.24;62.30;101144.19;2089737;28;46642;-62
2023/04/11 04:36:58;;;;;;;;;1.00;1.00;;;;;12.23;62.40;101141.56;2090291;28;46816;-60
2023/04/11 04:38:04;;;;;;;;;2.25;1.00;;;;;12.25;62.55;101139.75;2090592;28;46887;-59
2023/04/11 04:39:05;;;;;;;;;3.25;2.00;;;;;12.26;62.27;101134.38;2086408;28;46348;-59
2023/04/11 04:40:10;;;;;;;;;2.00;2.00;;;;;12.27;62.27;101144.13;2087988;28;46141;-60
2023/04/11 04:41:13;;;;;;;;;2.75;1.75;;;;;12.28;62.19;101137.00;2096531;28;45906;-57
2023/04/11 04:42:14;;;;;;;;;1.50;1.00;;;;;12.29;62.33;101133.44;2096706;28;47044;-58
2023/04/11 04:43:17;;;;;;;;;2.00;2.00;;;;;12.28;62.10;101129.03;2096708;28;45978;-59